sensor_id;sensor_type;location;lat;lon;timestamp;temperature;humidity
26099;DHT22;13860;52.370;6.764;2022-10-31T00:02:40;15.00;82.80
26099;DHT22;13860;52.370;6.764;2022-10-31T00:05:47;15.00;82.90
26099;DHT22;13860;52.370;6.764;2022-10-31T00:08:53;15.00;83.00
26099;DHT22;13860;52.370;6.764;2022-10-31T00:11:57;15.00;83.00
26099;DHT22;13860;52.370;6.764;2022-10-31T00:15:01;14.90;83.60
26099;DHT22;13860;52.370;6.764;2022-10-31T00:18:05;14.90;83.00
26099;DHT22;13860;52.370;6.764;2022-10-31T00:21:11;14.90;83.00
26099;DHT22;13860;52.370;6.764;2022-10-31T00:24:15;14.80;83.00
26099;DHT22;13860;52.370;6.764;2022-10-31T00:27:19;14.80;83.00
26099;DHT22;13860;52.370;6.764;2022-10-31T00:30:22;14.80;83.00
26099;DHT22;13860;52.370;6.764;2022-10-31T00:33:26;14.70;83.00
26099;DHT22;13860;52.370;6.764;2022-10-31T00:36:32;14.70;83.00
26099;DHT22;13860;52.370;6.764;2022-10-31T00:39:36;14.70;83.00
26099;DHT22;13860;52.370;6.764;2022-10-31T00:42:40;14.60;82.90
26099;DHT22;13860;52.370;6.764;2022-10-31T00:45:44;14.60;83.00
26099;DHT22;13860;52.370;6.764;2022-10-31T00:48:48;14.50;83.00
26099;DHT22;13860;52.370;6.764;2022-10-31T00:51:54;14.50;83.10
26099;DHT22;13860;52.370;6.764;2022-10-31T00:54:57;14.50;83.10
26099;DHT22;13860;52.370;6.764;2022-10-31T00:58:01;14.50;83.10
26099;DHT22;13860;52.370;6.764;2022-10-31T01:01:07;14.50;83.20
26099;DHT22;13860;52.370;6.764;2022-10-31T01:04:10;14.40;83.10
26099;DHT22;13860;52.370;6.764;2022-10-31T01:07:16;14.40;83.20
26099;DHT22;13860;52.370;6.764;2022-10-31T01:10:20;14.40;83.20
26099;DHT22;13860;52.370;6.764;2022-10-31T01:13:25;14.30;83.30
26099;DHT22;13860;52.370;6.764;2022-10-31T01:16:29;14.30;83.20
26099;DHT22;13860;52.370;6.764;2022-10-31T01:19:32;14.30;83.60
26099;DHT22;13860;52.370;6.764;2022-10-31T01:22:38;14.20;83.30
26099;DHT22;13860;52.370;6.764;2022-10-31T01:25:42;14.20;83.30
26099;DHT22;13860;52.370;6.764;2022-10-31T01:28:47;14.20;83.30
26099;DHT22;13860;52.370;6.764;2022-10-31T01:31:51;14.20;83.40
26099;DHT22;13860;52.370;6.764;2022-10-31T01:34:54;14.20;83.30
26099;DHT22;13860;52.370;6.764;2022-10-31T01:38:00;14.10;83.30
26099;DHT22;13860;52.370;6.764;2022-10-31T01:41:04;14.10;83.30
26099;DHT22;13860;52.370;6.764;2022-10-31T01:47:39;14.00;83.20
26099;DHT22;13860;52.370;6.764;2022-10-31T01:50:45;14.00;83.20
26099;DHT22;13860;52.370;6.764;2022-10-31T01:53:54;13.90;83.20
26099;DHT22;13860;52.370;6.764;2022-10-31T01:56:59;13.90;83.30
26099;DHT22;13860;52.370;6.764;2022-10-31T02:00:07;13.80;83.30
26099;DHT22;13860;52.370;6.764;2022-10-31T02:03:18;13.80;83.30
26099;DHT22;13860;52.370;6.764;2022-10-31T02:06:27;13.70;83.30
26099;DHT22;13860;52.370;6.764;2022-10-31T02:09:37;13.70;83.30
26099;DHT22;13860;52.370;6.764;2022-10-31T02:12:44;13.70;83.40
26099;DHT22;13860;52.370;6.764;2022-10-31T02:15:51;13.60;83.30
26099;DHT22;13860;52.370;6.764;2022-10-31T02:18:55;13.50;83.40
26099;DHT22;13860;52.370;6.764;2022-10-31T02:22:05;13.50;83.40
26099;DHT22;13860;52.370;6.764;2022-10-31T02:25:39;13.50;84.10
26099;DHT22;13860;52.370;6.764;2022-10-31T02:29:03;13.40;83.40
26099;DHT22;13860;52.370;6.764;2022-10-31T02:32:14;13.40;83.40
26099;DHT22;13860;52.370;6.764;2022-10-31T02:35:32;13.30;83.40
26099;DHT22;13860;52.370;6.764;2022-10-31T02:38:47;13.30;83.40
26099;DHT22;13860;52.370;6.764;2022-10-31T02:42:06;13.30;83.50
26099;DHT22;13860;52.370;6.764;2022-10-31T02:45:16;13.20;83.50
26099;DHT22;13860;52.370;6.764;2022-10-31T02:48:27;13.20;83.50
26099;DHT22;13860;52.370;6.764;2022-10-31T02:51:31;13.10;83.40
26099;DHT22;13860;52.370;6.764;2022-10-31T02:54:35;13.10;83.50
26099;DHT22;13860;52.370;6.764;2022-10-31T02:57:39;13.00;83.40
26099;DHT22;13860;52.370;6.764;2022-10-31T03:00:50;13.00;83.50
26099;DHT22;13860;52.370;6.764;2022-10-31T03:04:12;13.00;83.50
26099;DHT22;13860;52.370;6.764;2022-10-31T03:07:25;12.90;83.50
26099;DHT22;13860;52.370;6.764;2022-10-31T03:10:40;12.90;83.50
26099;DHT22;13860;52.370;6.764;2022-10-31T03:13:48;12.80;83.50
26099;DHT22;13860;52.370;6.764;2022-10-31T03:16:54;12.80;83.50
26099;DHT22;13860;52.370;6.764;2022-10-31T03:20:04;12.80;83.60
26099;DHT22;13860;52.370;6.764;2022-10-31T03:23:12;12.70;83.60
26099;DHT22;13860;52.370;6.764;2022-10-31T03:26:21;12.70;83.70
26099;DHT22;13860;52.370;6.764;2022-10-31T03:29:28;12.70;83.70
26099;DHT22;13860;52.370;6.764;2022-10-31T03:32:35;12.70;83.80
26099;DHT22;13860;52.370;6.764;2022-10-31T03:35:45;12.70;83.80
26099;DHT22;13860;52.370;6.764;2022-10-31T03:38:51;12.60;83.80
26099;DHT22;13860;52.370;6.764;2022-10-31T03:41:57;12.60;83.80
26099;DHT22;13860;52.370;6.764;2022-10-31T03:45:06;12.60;83.80
26099;DHT22;13860;52.370;6.764;2022-10-31T03:48:12;12.60;83.90
26099;DHT22;13860;52.370;6.764;2022-10-31T03:51:22;12.60;83.90
26099;DHT22;13860;52.370;6.764;2022-10-31T03:54:30;12.60;83.90
26099;DHT22;13860;52.370;6.764;2022-10-31T03:57:39;12.60;83.90
26099;DHT22;13860;52.370;6.764;2022-10-31T04:00:46;12.50;83.90
26099;DHT22;13860;52.370;6.764;2022-10-31T04:03:52;12.50;83.80
26099;DHT22;13860;52.370;6.764;2022-10-31T04:07:00;12.50;83.90
26099;DHT22;13860;52.370;6.764;2022-10-31T04:10:07;12.50;83.90
26099;DHT22;13860;52.370;6.764;2022-10-31T04:13:14;12.40;83.80
26099;DHT22;13860;52.370;6.764;2022-10-31T04:16:48;12.40;83.80
26099;DHT22;13860;52.370;6.764;2022-10-31T04:19:59;12.30;83.70
26099;DHT22;13860;52.370;6.764;2022-10-31T04:23:08;12.30;83.70
26099;DHT22;13860;52.370;6.764;2022-10-31T04:26:15;12.30;83.80
26099;DHT22;13860;52.370;6.764;2022-10-31T04:29:19;12.30;83.80
26099;DHT22;13860;52.370;6.764;2022-10-31T04:32:23;12.20;83.80
26099;DHT22;13860;52.370;6.764;2022-10-31T04:35:27;12.20;83.80
26099;DHT22;13860;52.370;6.764;2022-10-31T04:38:33;12.20;83.80
26099;DHT22;13860;52.370;6.764;2022-10-31T04:41:42;12.10;83.80
26099;DHT22;13860;52.370;6.764;2022-10-31T04:44:48;12.10;83.80
26099;DHT22;13860;52.370;6.764;2022-10-31T04:47:52;12.00;83.80
26099;DHT22;13860;52.370;6.764;2022-10-31T04:51:01;12.00;83.80
26099;DHT22;13860;52.370;6.764;2022-10-31T04:54:07;12.00;83.80
26099;DHT22;13860;52.370;6.764;2022-10-31T04:57:40;11.90;83.80
26099;DHT22;13860;52.370;6.764;2022-10-31T05:00:44;11.90;83.80
26099;DHT22;13860;52.370;6.764;2022-10-31T05:03:48;11.80;83.80
26099;DHT22;13860;52.370;6.764;2022-10-31T05:06:52;11.80;83.80
26099;DHT22;13860;52.370;6.764;2022-10-31T05:09:58;11.80;83.80
26099;DHT22;13860;52.370;6.764;2022-10-31T05:13:02;11.70;83.80
26099;DHT22;13860;52.370;6.764;2022-10-31T05:16:28;11.70;83.80
26099;DHT22;13860;52.370;6.764;2022-10-31T05:20:01;11.70;83.80
26099;DHT22;13860;52.370;6.764;2022-10-31T05:23:33;11.60;83.80
26099;DHT22;13860;52.370;6.764;2022-10-31T05:26:41;11.60;83.80
26099;DHT22;13860;52.370;6.764;2022-10-31T05:29:45;11.50;83.80
26099;DHT22;13860;52.370;6.764;2022-10-31T05:32:49;11.50;83.80
26099;DHT22;13860;52.370;6.764;2022-10-31T05:36:19;11.50;83.80
26099;DHT22;13860;52.370;6.764;2022-10-31T05:39:27;11.50;83.90
26099;DHT22;13860;52.370;6.764;2022-10-31T05:42:38;11.40;83.80
26099;DHT22;13860;52.370;6.764;2022-10-31T05:45:41;11.40;83.90
26099;DHT22;13860;52.370;6.764;2022-10-31T05:49:02;11.40;83.90
26099;DHT22;13860;52.370;6.764;2022-10-31T05:52:24;11.30;83.80
26099;DHT22;13860;52.370;6.764;2022-10-31T05:55:35;11.30;83.90
26099;DHT22;13860;52.370;6.764;2022-10-31T05:58:54;11.30;83.90
26099;DHT22;13860;52.370;6.764;2022-10-31T06:02:00;11.30;83.90
26099;DHT22;13860;52.370;6.764;2022-10-31T06:05:22;11.20;83.90
26099;DHT22;13860;52.370;6.764;2022-10-31T06:08:27;11.20;83.90
26099;DHT22;13860;52.370;6.764;2022-10-31T06:11:34;11.20;84.00
26099;DHT22;13860;52.370;6.764;2022-10-31T06:14:40;11.20;84.00
26099;DHT22;13860;52.370;6.764;2022-10-31T06:17:44;11.20;84.10
26099;DHT22;13860;52.370;6.764;2022-10-31T06:20:56;11.10;84.00
26099;DHT22;13860;52.370;6.764;2022-10-31T06:24:00;11.10;84.00
26099;DHT22;13860;52.370;6.764;2022-10-31T06:27:26;11.10;84.00
26099;DHT22;13860;52.370;6.764;2022-10-31T06:30:34;11.10;84.00
26099;DHT22;13860;52.370;6.764;2022-10-31T06:33:40;11.10;84.10
26099;DHT22;13860;52.370;6.764;2022-10-31T06:36:45;11.10;84.00
26099;DHT22;13860;52.370;6.764;2022-10-31T06:39:49;11.10;84.00
26099;DHT22;13860;52.370;6.764;2022-10-31T06:42:57;11.10;84.10
26099;DHT22;13860;52.370;6.764;2022-10-31T06:46:04;11.10;84.10
26099;DHT22;13860;52.370;6.764;2022-10-31T06:49:14;11.00;84.10
26099;DHT22;13860;52.370;6.764;2022-10-31T06:52:28;11.00;84.10
26099;DHT22;13860;52.370;6.764;2022-10-31T06:55:31;11.00;84.10
26099;DHT22;13860;52.370;6.764;2022-10-31T06:58:35;11.00;84.10
26099;DHT22;13860;52.370;6.764;2022-10-31T07:01:43;11.00;84.10
26099;DHT22;13860;52.370;6.764;2022-10-31T07:04:47;11.00;84.00
26099;DHT22;13860;52.370;6.764;2022-10-31T07:07:53;11.00;84.10
26099;DHT22;13860;52.370;6.764;2022-10-31T07:10:57;11.00;84.20
26099;DHT22;13860;52.370;6.764;2022-10-31T07:14:03;11.00;84.20
26099;DHT22;13860;52.370;6.764;2022-10-31T07:17:09;11.00;84.20
26099;DHT22;13860;52.370;6.764;2022-10-31T07:20:16;11.00;84.30
26099;DHT22;13860;52.370;6.764;2022-10-31T07:23:20;11.00;84.30
26099;DHT22;13860;52.370;6.764;2022-10-31T07:26:43;11.00;84.30
26099;DHT22;13860;52.370;6.764;2022-10-31T07:29:49;11.00;84.30
26099;DHT22;13860;52.370;6.764;2022-10-31T07:32:55;10.90;84.30
26099;DHT22;13860;52.370;6.764;2022-10-31T07:36:07;11.00;84.40
26099;DHT22;13860;52.370;6.764;2022-10-31T07:39:15;11.00;84.40
26099;DHT22;13860;52.370;6.764;2022-10-31T07:42:19;11.00;84.40
26099;DHT22;13860;52.370;6.764;2022-10-31T07:45:24;11.00;84.50
26099;DHT22;13860;52.370;6.764;2022-10-31T07:48:48;11.00;84.50
26099;DHT22;13860;52.370;6.764;2022-10-31T07:52:10;11.00;84.50
26099;DHT22;13860;52.370;6.764;2022-10-31T07:55:46;11.00;84.60
26099;DHT22;13860;52.370;6.764;2022-10-31T07:58:50;11.00;84.50
26099;DHT22;13860;52.370;6.764;2022-10-31T08:01:54;11.10;84.60
26099;DHT22;13860;52.370;6.764;2022-10-31T08:05:08;11.10;84.50
26099;DHT22;13860;52.370;6.764;2022-10-31T08:08:31;11.10;84.70
26099;DHT22;13860;52.370;6.764;2022-10-31T08:11:39;11.10;84.70
26099;DHT22;13860;52.370;6.764;2022-10-31T08:14:43;11.20;84.90
26099;DHT22;13860;52.370;6.764;2022-10-31T08:17:49;11.30;85.00
26099;DHT22;13860;52.370;6.764;2022-10-31T08:20:55;11.30;85.10
26099;DHT22;13860;52.370;6.764;2022-10-31T08:23:59;11.40;85.20
26099;DHT22;13860;52.370;6.764;2022-10-31T08:27:03;11.50;85.30
26099;DHT22;13860;52.370;6.764;2022-10-31T08:30:08;11.60;85.40
26099;DHT22;13860;52.370;6.764;2022-10-31T08:33:16;11.60;85.40
26099;DHT22;13860;52.370;6.764;2022-10-31T08:36:41;11.70;85.50
26099;DHT22;13860;52.370;6.764;2022-10-31T08:39:50;11.80;85.50
26099;DHT22;13860;52.370;6.764;2022-10-31T08:42:56;11.90;85.60
26099;DHT22;13860;52.370;6.764;2022-10-31T08:46:00;12.00;85.70
26099;DHT22;13860;52.370;6.764;2022-10-31T08:49:04;12.10;85.80
26099;DHT22;13860;52.370;6.764;2022-10-31T08:52:10;12.20;85.80
26099;DHT22;13860;52.370;6.764;2022-10-31T08:55:18;12.30;85.60
26099;DHT22;13860;52.370;6.764;2022-10-31T08:58:22;12.30;85.80
26099;DHT22;13860;52.370;6.764;2022-10-31T09:01:30;12.40;86.40
26099;DHT22;13860;52.370;6.764;2022-10-31T09:04:34;12.50;85.90
26099;DHT22;13860;52.370;6.764;2022-10-31T09:07:40;12.60;85.90
26099;DHT22;13860;52.370;6.764;2022-10-31T09:10:44;12.70;85.80
26099;DHT22;13860;52.370;6.764;2022-10-31T09:13:52;12.70;86.20
26099;DHT22;13860;52.370;6.764;2022-10-31T09:17:25;12.90;86.10
26099;DHT22;13860;52.370;6.764;2022-10-31T09:20:49;13.00;86.20
26099;DHT22;13860;52.370;6.764;2022-10-31T09:23:55;13.10;86.30
26099;DHT22;13860;52.370;6.764;2022-10-31T09:26:59;13.20;86.50
26099;DHT22;13860;52.370;6.764;2022-10-31T09:30:04;13.30;86.60
26099;DHT22;13860;52.370;6.764;2022-10-31T09:33:10;13.50;86.70
26099;DHT22;13860;52.370;6.764;2022-10-31T09:36:17;13.60;86.70
26099;DHT22;13860;52.370;6.764;2022-10-31T09:39:23;13.70;86.80
26099;DHT22;13860;52.370;6.764;2022-10-31T09:42:42;13.90;86.90
26099;DHT22;13860;52.370;6.764;2022-10-31T09:46:00;14.00;87.00
26099;DHT22;13860;52.370;6.764;2022-10-31T09:49:29;14.10;86.90
26099;DHT22;13860;52.370;6.764;2022-10-31T09:52:37;14.30;87.00
26099;DHT22;13860;52.370;6.764;2022-10-31T09:55:47;14.40;86.80
26099;DHT22;13860;52.370;6.764;2022-10-31T09:58:53;14.50;86.80
26099;DHT22;13860;52.370;6.764;2022-10-31T10:01:59;14.60;86.70
26099;DHT22;13860;52.370;6.764;2022-10-31T10:05:09;14.70;86.70
26099;DHT22;13860;52.370;6.764;2022-10-31T10:08:18;14.80;86.80
26099;DHT22;13860;52.370;6.764;2022-10-31T10:12:07;14.90;86.80
26099;DHT22;13860;52.370;6.764;2022-10-31T10:15:31;15.00;86.80
26099;DHT22;13860;52.370;6.764;2022-10-31T10:18:45;15.10;86.90
26099;DHT22;13860;52.370;6.764;2022-10-31T10:21:57;15.30;86.80
26099;DHT22;13860;52.370;6.764;2022-10-31T10:25:14;15.40;86.80
26099;DHT22;13860;52.370;6.764;2022-10-31T10:28:25;15.60;86.90
26099;DHT22;13860;52.370;6.764;2022-10-31T10:31:39;15.70;86.90
26099;DHT22;13860;52.370;6.764;2022-10-31T10:34:47;15.90;86.80
26099;DHT22;13860;52.370;6.764;2022-10-31T10:37:56;16.10;86.60
26099;DHT22;13860;52.370;6.764;2022-10-31T10:41:03;16.30;86.40
26099;DHT22;13860;52.370;6.764;2022-10-31T10:44:11;16.50;86.20
26099;DHT22;13860;52.370;6.764;2022-10-31T10:47:17;16.60;85.90
26099;DHT22;13860;52.370;6.764;2022-10-31T10:50:36;16.80;85.80
26099;DHT22;13860;52.370;6.764;2022-10-31T10:53:50;16.90;85.60
26099;DHT22;13860;52.370;6.764;2022-10-31T10:57:26;17.00;85.20
26099;DHT22;13860;52.370;6.764;2022-10-31T11:00:34;17.10;85.00
26099;DHT22;13860;52.370;6.764;2022-10-31T11:03:39;17.20;84.80
26099;DHT22;13860;52.370;6.764;2022-10-31T11:06:43;17.30;84.60
26099;DHT22;13860;52.370;6.764;2022-10-31T11:09:48;17.30;84.30
26099;DHT22;13860;52.370;6.764;2022-10-31T11:13:02;17.40;84.10
26099;DHT22;13860;52.370;6.764;2022-10-31T11:16:10;17.40;84.50
26099;DHT22;13860;52.370;6.764;2022-10-31T11:19:17;17.40;83.80
26099;DHT22;13860;52.370;6.764;2022-10-31T11:22:22;17.40;83.70
26099;DHT22;13860;52.370;6.764;2022-10-31T11:25:26;17.50;83.70
26099;DHT22;13860;52.370;6.764;2022-10-31T11:28:31;17.40;83.50
26099;DHT22;13860;52.370;6.764;2022-10-31T11:31:38;17.50;83.40
26099;DHT22;13860;52.370;6.764;2022-10-31T11:34:44;17.50;83.70
26099;DHT22;13860;52.370;6.764;2022-10-31T11:37:49;17.50;83.30
26099;DHT22;13860;52.370;6.764;2022-10-31T11:40:57;17.50;83.20
26099;DHT22;13860;52.370;6.764;2022-10-31T11:44:04;17.50;83.10
26099;DHT22;13860;52.370;6.764;2022-10-31T11:47:14;17.50;83.10
26099;DHT22;13860;52.370;6.764;2022-10-31T11:50:20;17.50;83.00
26099;DHT22;13860;52.370;6.764;2022-10-31T11:53:27;17.50;82.90
26099;DHT22;13860;52.370;6.764;2022-10-31T11:56:41;17.50;82.80
26099;DHT22;13860;52.370;6.764;2022-10-31T11:59:51;17.60;82.80
26099;DHT22;13860;52.370;6.764;2022-10-31T12:03:12;17.60;82.80
26099;DHT22;13860;52.370;6.764;2022-10-31T12:06:20;17.60;82.50
26099;DHT22;13860;52.370;6.764;2022-10-31T12:09:28;17.60;82.60
26099;DHT22;13860;52.370;6.764;2022-10-31T12:12:56;17.60;82.50
26099;DHT22;13860;52.370;6.764;2022-10-31T12:16:08;17.60;82.20
26099;DHT22;13860;52.370;6.764;2022-10-31T12:19:25;17.60;82.20
26099;DHT22;13860;52.370;6.764;2022-10-31T12:22:38;17.60;82.10
26099;DHT22;13860;52.370;6.764;2022-10-31T12:25:50;17.60;82.10
26099;DHT22;13860;52.370;6.764;2022-10-31T12:29:07;17.60;82.00
26099;DHT22;13860;52.370;6.764;2022-10-31T12:32:23;17.70;81.90
26099;DHT22;13860;52.370;6.764;2022-10-31T12:35:44;17.70;81.90
26099;DHT22;13860;52.370;6.764;2022-10-31T12:39:02;17.70;81.80
26099;DHT22;13860;52.370;6.764;2022-10-31T12:42:17;17.70;81.70
26099;DHT22;13860;52.370;6.764;2022-10-31T12:45:34;17.70;81.70
26099;DHT22;13860;52.370;6.764;2022-10-31T12:52:24;17.70;81.50
26099;DHT22;13860;52.370;6.764;2022-10-31T12:55:40;17.70;81.50
26099;DHT22;13860;52.370;6.764;2022-10-31T12:58:48;17.70;81.50
26099;DHT22;13860;52.370;6.764;2022-10-31T13:01:57;17.70;81.80
26099;DHT22;13860;52.370;6.764;2022-10-31T13:05:05;17.70;81.40
26099;DHT22;13860;52.370;6.764;2022-10-31T13:08:20;17.70;81.40
26099;DHT22;13860;52.370;6.764;2022-10-31T13:11:28;17.70;81.30
26099;DHT22;13860;52.370;6.764;2022-10-31T13:14:36;17.70;81.30
26099;DHT22;13860;52.370;6.764;2022-10-31T13:17:45;17.80;81.30
26099;DHT22;13860;52.370;6.764;2022-10-31T13:20:50;17.80;81.30
26099;DHT22;13860;52.370;6.764;2022-10-31T13:24:01;17.80;81.10
26099;DHT22;13860;52.370;6.764;2022-10-31T13:27:13;17.80;81.10
26099;DHT22;13860;52.370;6.764;2022-10-31T13:30:18;17.80;81.10
26099;DHT22;13860;52.370;6.764;2022-10-31T13:33:26;17.80;81.10
26099;DHT22;13860;52.370;6.764;2022-10-31T13:36:34;17.80;81.00
26099;DHT22;13860;52.370;6.764;2022-10-31T13:39:49;17.80;81.00
26099;DHT22;13860;52.370;6.764;2022-10-31T13:43:01;17.80;80.90
26099;DHT22;13860;52.370;6.764;2022-10-31T13:46:22;17.80;81.00
26099;DHT22;13860;52.370;6.764;2022-10-31T13:49:38;17.80;80.90
26099;DHT22;13860;52.370;6.764;2022-10-31T13:52:42;17.90;81.00
26099;DHT22;13860;52.370;6.764;2022-10-31T13:55:49;17.90;81.10
26099;DHT22;13860;52.370;6.764;2022-10-31T13:59:16;17.90;81.00
26099;DHT22;13860;52.370;6.764;2022-10-31T14:02:25;17.90;81.00
26099;DHT22;13860;52.370;6.764;2022-10-31T14:05:31;17.90;81.00
26099;DHT22;13860;52.370;6.764;2022-10-31T14:08:38;17.90;81.10
26099;DHT22;13860;52.370;6.764;2022-10-31T14:11:46;17.90;81.00
26099;DHT22;13860;52.370;6.764;2022-10-31T14:14:53;17.90;81.00
26099;DHT22;13860;52.370;6.764;2022-10-31T14:18:01;17.90;81.00
26099;DHT22;13860;52.370;6.764;2022-10-31T14:21:15;17.90;81.10
26099;DHT22;13860;52.370;6.764;2022-10-31T14:24:36;17.90;81.00
26099;DHT22;13860;52.370;6.764;2022-10-31T14:27:46;17.90;81.00
26099;DHT22;13860;52.370;6.764;2022-10-31T14:30:56;17.90;81.00
26099;DHT22;13860;52.370;6.764;2022-10-31T14:34:01;17.80;81.00
26099;DHT22;13860;52.370;6.764;2022-10-31T14:40:47;17.90;81.10
26099;DHT22;13860;52.370;6.764;2022-10-31T14:47:31;17.80;81.10
26099;DHT22;13860;52.370;6.764;2022-10-31T14:50:46;17.70;81.10
26099;DHT22;13860;52.370;6.764;2022-10-31T14:53:52;17.70;81.10
26099;DHT22;13860;52.370;6.764;2022-10-31T14:57:00;17.70;81.10
26099;DHT22;13860;52.370;6.764;2022-10-31T15:00:16;17.70;81.20
26099;DHT22;13860;52.370;6.764;2022-10-31T15:03:24;17.70;81.20
26099;DHT22;13860;52.370;6.764;2022-10-31T15:06:31;17.70;81.30
26099;DHT22;13860;52.370;6.764;2022-10-31T15:09:41;17.70;81.30
26099;DHT22;13860;52.370;6.764;2022-10-31T15:12:47;17.70;81.30
26099;DHT22;13860;52.370;6.764;2022-10-31T15:15:52;17.70;81.30
26099;DHT22;13860;52.370;6.764;2022-10-31T15:18:59;17.70;81.40
26099;DHT22;13860;52.370;6.764;2022-10-31T15:22:03;17.70;81.30
26099;DHT22;13860;52.370;6.764;2022-10-31T15:25:11;17.60;81.90
26099;DHT22;13860;52.370;6.764;2022-10-31T15:28:23;17.60;81.30
26099;DHT22;13860;52.370;6.764;2022-10-31T15:31:29;17.60;81.40
26099;DHT22;13860;52.370;6.764;2022-10-31T15:34:37;17.60;81.40
26099;DHT22;13860;52.370;6.764;2022-10-31T15:37:42;17.60;81.40
26099;DHT22;13860;52.370;6.764;2022-10-31T15:40:52;17.50;81.40
26099;DHT22;13860;52.370;6.764;2022-10-31T15:44:00;17.50;81.40
26099;DHT22;13860;52.370;6.764;2022-10-31T15:47:13;17.50;81.50
26099;DHT22;13860;52.370;6.764;2022-10-31T15:50:19;17.50;81.50
26099;DHT22;13860;52.370;6.764;2022-10-31T15:53:25;17.40;81.50
26099;DHT22;13860;52.370;6.764;2022-10-31T15:56:31;17.40;81.50
26099;DHT22;13860;52.370;6.764;2022-10-31T15:59:35;17.40;81.60
26099;DHT22;13860;52.370;6.764;2022-10-31T16:02:41;17.40;81.60
26099;DHT22;13860;52.370;6.764;2022-10-31T16:05:46;17.30;81.60
26099;DHT22;13860;52.370;6.764;2022-10-31T16:08:50;17.30;81.60
26099;DHT22;13860;52.370;6.764;2022-10-31T16:11:56;17.30;81.70
26099;DHT22;13860;52.370;6.764;2022-10-31T16:15:01;17.20;81.60
26099;DHT22;13860;52.370;6.764;2022-10-31T16:18:11;17.30;81.70
26099;DHT22;13860;52.370;6.764;2022-10-31T16:21:15;17.30;81.70
26099;DHT22;13860;52.370;6.764;2022-10-31T16:24:29;17.20;81.70
26099;DHT22;13860;52.370;6.764;2022-10-31T16:27:35;17.20;81.80
26099;DHT22;13860;52.370;6.764;2022-10-31T16:30:42;17.20;81.80
26099;DHT22;13860;52.370;6.764;2022-10-31T16:34:02;17.10;81.90
26099;DHT22;13860;52.370;6.764;2022-10-31T16:37:06;17.10;81.90
26099;DHT22;13860;52.370;6.764;2022-10-31T16:40:10;17.10;82.00
26099;DHT22;13860;52.370;6.764;2022-10-31T16:43:15;17.00;81.90
26099;DHT22;13860;52.370;6.764;2022-10-31T16:46:22;17.00;82.00
26099;DHT22;13860;52.370;6.764;2022-10-31T16:49:28;17.00;82.10
26099;DHT22;13860;52.370;6.764;2022-10-31T16:52:31;17.00;82.20
26099;DHT22;13860;52.370;6.764;2022-10-31T16:55:54;17.00;82.20
26099;DHT22;13860;52.370;6.764;2022-10-31T16:58:58;16.90;82.20
26099;DHT22;13860;52.370;6.764;2022-10-31T17:02:03;16.90;82.20
26099;DHT22;13860;52.370;6.764;2022-10-31T17:05:12;16.90;82.30
26099;DHT22;13860;52.370;6.764;2022-10-31T17:08:16;16.90;82.40
26099;DHT22;13860;52.370;6.764;2022-10-31T17:11:23;16.90;82.40
26099;DHT22;13860;52.370;6.764;2022-10-31T17:14:28;16.90;82.50
26099;DHT22;13860;52.370;6.764;2022-10-31T17:17:31;16.90;82.40
26099;DHT22;13860;52.370;6.764;2022-10-31T17:20:38;16.90;82.40
26099;DHT22;13860;52.370;6.764;2022-10-31T17:23:41;16.90;82.40
26099;DHT22;13860;52.370;6.764;2022-10-31T17:26:45;16.80;82.40
26099;DHT22;13860;52.370;6.764;2022-10-31T17:29:49;16.80;82.40
26099;DHT22;13860;52.370;6.764;2022-10-31T17:32:53;16.80;82.40
26099;DHT22;13860;52.370;6.764;2022-10-31T17:36:01;16.80;82.50
26099;DHT22;13860;52.370;6.764;2022-10-31T17:39:05;16.80;82.50
26099;DHT22;13860;52.370;6.764;2022-10-31T17:42:10;16.80;82.50
26099;DHT22;13860;52.370;6.764;2022-10-31T17:45:13;16.80;82.60
26099;DHT22;13860;52.370;6.764;2022-10-31T17:48:17;16.80;82.60
26099;DHT22;13860;52.370;6.764;2022-10-31T17:51:22;16.80;82.70
26099;DHT22;13860;52.370;6.764;2022-10-31T17:54:26;16.80;82.60
26099;DHT22;13860;52.370;6.764;2022-10-31T17:57:32;16.80;82.60
26099;DHT22;13860;52.370;6.764;2022-10-31T18:00:37;16.80;82.60
26099;DHT22;13860;52.370;6.764;2022-10-31T18:03:41;16.80;82.60
26099;DHT22;13860;52.370;6.764;2022-10-31T18:06:47;16.80;82.60
26099;DHT22;13860;52.370;6.764;2022-10-31T18:09:51;16.70;82.60
26099;DHT22;13860;52.370;6.764;2022-10-31T18:12:55;16.70;82.70
26099;DHT22;13860;52.370;6.764;2022-10-31T18:15:59;16.70;82.70
26099;DHT22;13860;52.370;6.764;2022-10-31T18:19:03;16.70;82.70
26099;DHT22;13860;52.370;6.764;2022-10-31T18:22:08;16.70;82.70
26099;DHT22;13860;52.370;6.764;2022-10-31T18:25:12;16.70;82.70
26099;DHT22;13860;52.370;6.764;2022-10-31T18:28:15;16.70;82.70
26099;DHT22;13860;52.370;6.764;2022-10-31T18:31:19;16.60;82.70
26099;DHT22;13860;52.370;6.764;2022-10-31T18:34:23;16.60;82.70
26099;DHT22;13860;52.370;6.764;2022-10-31T18:37:29;16.60;82.70
26099;DHT22;13860;52.370;6.764;2022-10-31T18:40:33;16.60;82.80
26099;DHT22;13860;52.370;6.764;2022-10-31T18:43:38;16.60;82.90
26099;DHT22;13860;52.370;6.764;2022-10-31T18:46:41;16.60;82.80
26099;DHT22;13860;52.370;6.764;2022-10-31T18:49:45;16.60;82.90
26099;DHT22;13860;52.370;6.764;2022-10-31T18:52:51;16.60;82.90
26099;DHT22;13860;52.370;6.764;2022-10-31T18:55:55;16.60;83.00
26099;DHT22;13860;52.370;6.764;2022-10-31T18:58:59;16.60;82.90
26099;DHT22;13860;52.370;6.764;2022-10-31T19:02:03;16.60;82.90
26099;DHT22;13860;52.370;6.764;2022-10-31T19:05:07;16.60;82.80
26099;DHT22;13860;52.370;6.764;2022-10-31T19:08:12;16.50;82.70
26099;DHT22;13860;52.370;6.764;2022-10-31T19:11:16;16.60;82.90
26099;DHT22;13860;52.370;6.764;2022-10-31T19:14:20;16.50;82.90
26099;DHT22;13860;52.370;6.764;2022-10-31T19:17:23;16.50;82.90
26099;DHT22;13860;52.370;6.764;2022-10-31T19:20:27;16.50;82.90
26099;DHT22;13860;52.370;6.764;2022-10-31T19:23:33;16.50;83.00
26099;DHT22;13860;52.370;6.764;2022-10-31T19:26:37;16.50;83.00
26099;DHT22;13860;52.370;6.764;2022-10-31T19:29:41;16.50;83.00
26099;DHT22;13860;52.370;6.764;2022-10-31T19:32:44;16.50;83.00
26099;DHT22;13860;52.370;6.764;2022-10-31T19:35:48;16.50;83.00
26099;DHT22;13860;52.370;6.764;2022-10-31T19:38:54;16.50;83.00
26099;DHT22;13860;52.370;6.764;2022-10-31T19:42:00;16.50;83.00
26099;DHT22;13860;52.370;6.764;2022-10-31T19:45:05;16.50;83.00
26099;DHT22;13860;52.370;6.764;2022-10-31T19:48:09;16.50;83.00
26099;DHT22;13860;52.370;6.764;2022-10-31T19:51:14;16.50;83.00
26099;DHT22;13860;52.370;6.764;2022-10-31T19:54:20;16.50;83.00
26099;DHT22;13860;52.370;6.764;2022-10-31T19:57:23;16.40;82.90
26099;DHT22;13860;52.370;6.764;2022-10-31T20:00:47;16.40;82.90
26099;DHT22;13860;52.370;6.764;2022-10-31T20:03:51;16.40;82.80
26099;DHT22;13860;52.370;6.764;2022-10-31T20:06:55;16.40;82.80